Time;durP1;ratioP1;P1;durP2;ratioP2;P2;SDS_P1;SDS_P2;PMS_P1;PMS_P2;Temp;Humidity;BMP_temperature;BMP_pressure;BME280_temperature;BME280_humidity;BME280_pressure;Samples;Min_cycle;Max_cycle;Signal;HPM_P1;HPM_P2
2023/09/01 00:01:03;;;;;;;8.13;5.40;;;11.10;99.90;;;;;;6097615;23;20729;-87
2023/09/01 00:03:28;;;;;;;8.50;5.47;;;10.50;99.90;;;;;;6119818;23;20367;-87
2023/09/01 00:05:54;;;;;;;8.80;5.82;;;11.10;99.90;;;;;;6121808;23;20386;-86
2023/09/01 00:08:20;;;;;;;7.13;5.80;;;10.80;99.90;;;;;;6120072;23;20397;-86
2023/09/01 00:10:46;;;;;;;7.30;6.00;;;10.90;99.90;;;;;;6121444;23;20371;-87
2023/09/01 00:13:12;;;;;;;7.38;5.05;;;11.70;99.90;;;;;;6096902;23;20414;-86
2023/09/01 00:15:37;;;;;;;7.05;5.60;;;10.70;99.90;;;;;;6120595;23;20374;-87
2023/09/01 00:18:05;;;;;;;6.45;5.30;;;10.90;99.90;;;;;;6122858;23;20375;-87
2023/09/01 00:20:34;;;;;;;7.55;5.65;;;10.80;99.90;;;;;;6097117;23;20390;-87
2023/09/01 00:23:01;;;;;;;9.52;6.00;;;11.10;99.90;;;;;;6123838;23;20855;-87
2023/09/01 00:25:27;;;;;;;7.55;5.13;;;11.00;99.90;;;;;;6121466;23;20375;-86
2023/09/01 00:27:53;;;;;;;6.10;4.80;;;10.90;99.90;;;;;;6123538;23;20398;-87
2023/09/01 00:30:18;;;;;;;7.10;4.50;;;10.40;99.90;;;;;;6122486;23;20863;-86
2023/09/01 00:32:44;;;;;;;6.53;4.67;;;10.70;99.90;;;;;;6122561;23;20433;-87
2023/09/01 00:35:10;;;;;;;5.60;4.60;;;10.70;99.90;;;;;;6123824;23;20370;-86
2023/09/01 00:37:37;;;;;;;8.32;5.53;;;10.70;99.90;;;;;;6121452;23;20373;-87
2023/09/01 00:40:03;;;;;;;5.18;4.28;;;10.50;99.90;;;;;;6098960;23;20383;-87
2023/09/01 00:42:29;;;;;;;7.70;4.53;;;10.50;99.90;;;;;;6121065;23;20429;-87
2023/09/01 00:44:54;;;;;;;6.80;4.80;;;10.90;99.90;;;;;;6099128;23;20426;-87
2023/09/01 00:47:20;;;;;;;5.07;4.10;;;11.40;99.90;;;;;;6122022;23;20375;-87
2023/09/01 00:49:46;;;;;;;6.20;3.90;;;10.70;99.90;;;;;;6123551;23;20391;-87
2023/09/01 00:52:12;;;;;;;5.32;3.90;;;10.20;99.90;;;;;;6122980;23;20367;-87
2023/09/01 00:54:37;;;;;;;5.50;3.80;;;11.10;99.90;;;;;;6122077;23;20366;-87
2023/09/01 00:57:03;;;;;;;5.20;3.70;;;10.60;99.90;;;;;;6123395;23;20869;-87
2023/09/01 00:59:30;;;;;;;5.50;4.88;;;10.50;99.90;;;;;;6096769;23;20371;-87
2023/09/01 01:01:55;;;;;;;4.82;4.10;;;10.50;99.90;;;;;;6123221;23;20386;-87
2023/09/01 01:04:23;;;;;;;7.35;5.20;;;10.50;99.90;;;;;;6097095;23;20716;-87
2023/09/01 01:07:08;;;;;;;7.20;4.78;;;10.50;99.90;;;;;;6123191;23;20425;-87
2023/09/01 01:09:43;;;;;;;7.43;5.43;;;10.40;99.90;;;;;;6098448;23;20399;-87
2023/09/01 01:12:31;;;;;;;10.07;6.20;;;10.40;99.90;;;;;;6096628;23;20375;-87
2023/09/01 01:14:59;;;;;;;9.80;7.22;;;10.40;99.90;;;;;;6123296;23;20919;-87
2023/09/01 01:17:25;;;;;;;6.72;5.32;;;10.50;99.90;;;;;;6120732;23;20367;-86
2023/09/01 01:20:02;;;;;;;9.40;5.50;;;10.40;99.90;;;;;;6098581;23;20403;-86
2023/09/01 01:23:00;;;;;;;8.93;5.90;;;10.30;99.90;;;;;;6098094;23;20375;-86
2023/09/01 01:25:25;;;;;;;5.65;3.97;;;10.40;99.90;;;;;;6113818;23;20887;-87
2023/09/01 01:27:56;;;;;;;8.75;5.68;;;10.30;99.90;;;;;;6098550;23;20371;-87
2023/09/01 01:30:21;;;;;;;7.95;5.72;;;10.60;99.90;;;;;;6121133;23;20372;-87
2023/09/01 01:32:47;;;;;;;5.47;4.13;;;10.30;99.90;;;;;;6098723;23;20907;-87
2023/09/01 01:35:28;;;;;;;6.07;4.57;;;10.30;99.90;;;;;;6122101;23;20363;-86
2023/09/01 01:38:15;;;;;;;8.52;6.28;;;10.30;99.90;;;;;;6121530;23;20382;-87
2023/09/01 01:40:45;;;;;;;6.20;5.60;;;10.30;99.90;;;;;;6122745;23;20477;-87
2023/09/01 01:43:11;;;;;;;7.00;4.90;;;10.30;99.90;;;;;;6120695;23;20437;-87
2023/09/01 01:45:40;;;;;;;7.20;5.20;;;10.30;99.90;;;;;;6122756;23;20926;-87
2023/09/01 01:48:07;;;;;;;7.63;5.90;;;10.30;99.90;;;;;;6121339;23;20395;-87
2023/09/01 01:50:32;;;;;;;7.60;5.60;;;10.30;99.90;;;;;;6122195;23;20371;-87
2023/09/01 01:52:59;;;;;;;6.32;4.95;;;10.30;99.90;;;;;;6098383;23;20775;-87
2023/09/01 01:55:24;;;;;;;7.18;5.00;;;10.30;99.90;;;;;;6120868;23;20375;-86
2023/09/01 01:57:50;;;;;;;6.57;5.45;;;10.20;99.90;;;;;;6122617;23;20864;-87
2023/09/01 02:00:16;;;;;;;6.83;5.30;;;10.20;99.90;;;;;;6096347;23;20402;-87
2023/09/01 02:02:42;;;;;;;5.95;5.35;;;10.20;99.90;;;;;;6122766;23;20420;-87
2023/09/01 02:05:09;;;;;;;7.07;5.63;;;10.20;99.90;;;;;;6120580;23;20371;-88
2023/09/01 02:07:35;;;;;;;7.90;5.60;;;10.20;99.90;;;;;;6098068;23;20391;-86
2023/09/01 02:10:01;;;;;;;6.75;5.70;;;10.30;99.90;;;;;;6097426;23;20847;-86
2023/09/01 02:12:26;;;;;;;6.78;5.75;;;10.20;99.90;;;;;;6121425;23;20433;-87
2023/09/01 02:14:53;;;;;;;10.27;7.35;;;10.10;99.90;;;;;;6098262;23;20914;-87
2023/09/01 02:17:19;;;;;;;9.43;6.45;;;10.10;99.90;;;;;;6120527;23;20809;-86
2023/09/01 02:19:45;;;;;;;8.98;6.68;;;10.10;99.90;;;;;;6098499;23;20451;-86
2023/09/01 02:22:10;;;;;;;11.40;6.63;;;10.10;99.90;;;;;;6095851;23;20402;-87
2023/09/01 02:24:36;;;;;;;9.30;7.27;;;10.00;99.90;;;;;;6122773;23;20383;-86
2023/09/01 02:27:01;;;;;;;7.95;6.55;;;10.00;99.90;;;;;;6120879;23;20446;-86
2023/09/01 02:29:27;;;;;;;8.00;6.50;;;10.00;99.90;;;;;;6121910;23;20391;-86
2023/09/01 02:31:53;;;;;;;9.47;6.50;;;9.90;99.90;;;;;;6098038;23;20379;-86
2023/09/01 02:34:19;;;;;;;7.30;5.95;;;9.90;99.90;;;;;;6096258;23;20458;-87
2023/09/01 02:36:45;;;;;;;8.27;5.90;;;9.90;99.90;;;;;;6122361;23;20402;-87
2023/09/01 02:39:11;;;;;;;7.00;5.13;;;9.90;99.90;;;;;;6096009;23;20375;-86
2023/09/01 02:41:37;;;;;;;6.43;5.78;;;9.90;99.90;;;;;;6116788;23;20431;-87
2023/09/01 02:44:03;;;;;;;8.50;6.93;;;9.80;99.90;;;;;;6090935;23;20365;-86
2023/09/01 02:46:29;;;;;;;8.63;6.22;;;9.80;99.90;;;;;;6117911;23;20373;-86
2023/09/01 02:48:55;;;;;;;8.52;6.55;;;10.30;99.90;;;;;;6091948;23;20396;-86
2023/09/01 02:51:20;;;;;;;9.60;7.20;;;9.80;99.90;;;;;;6092229;23;20376;-86
2023/09/01 02:53:46;;;;;;;10.87;6.30;;;9.80;99.90;;;;;;6117162;23;20387;-86
2023/09/01 02:56:12;;;;;;;10.63;7.53;;;9.70;99.90;;;;;;6115560;23;20365;-86
2023/09/01 02:58:38;;;;;;;6.07;4.93;;;9.60;99.90;;;;;;6117916;23;20369;-87
2023/09/01 03:01:07;;;;;;;5.22;4.68;;;9.60;99.90;;;;;;6090808;23;20971;-87
2023/09/01 03:03:42;;;;;;;6.03;5.25;;;9.60;99.90;;;;;;6117540;23;21023;-87
2023/09/01 03:06:08;;;;;;;7.57;6.38;;;10.10;99.90;;;;;;6116364;23;20403;-86
2023/09/01 03:08:34;;;;;;;8.48;6.18;;;9.60;99.90;;;;;;6116474;23;20479;-86
2023/09/01 03:11:01;;;;;;;8.20;5.80;;;9.70;99.90;;;;;;6117277;23;20373;-86
2023/09/01 03:13:27;;;;;;;8.03;5.70;;;9.50;99.90;;;;;;6115242;23;20853;-87
2023/09/01 03:15:56;;;;;;;9.43;7.57;;;9.50;99.90;;;;;;6117183;23;20411;-87
2023/09/01 03:18:23;;;;;;;7.22;5.60;;;9.50;99.90;;;;;;6115253;23;20368;-86
2023/09/01 03:20:50;;;;;;;8.48;6.95;;;9.40;99.90;;;;;;6117537;23;20735;-86
2023/09/01 03:23:16;;;;;;;9.73;6.47;;;9.30;99.90;;;;;;6115528;23;20873;-86
2023/09/01 03:25:41;;;;;;;9.57;7.05;;;9.30;99.90;;;;;;6116818;23;20381;-86
2023/09/01 03:28:07;;;;;;;7.47;6.67;;;9.30;99.90;;;;;;6116335;23;20403;-86
2023/09/01 03:30:33;;;;;;;7.07;5.50;;;9.30;99.90;;;;;;6115520;23;20388;-86
2023/09/01 03:32:58;;;;;;;6.90;5.53;;;9.30;99.90;;;;;;6092974;23;20372;-86
2023/09/01 03:35:24;;;;;;;9.85;6.90;;;9.30;99.90;;;;;;6115012;23;20928;-87
2023/09/01 03:37:49;;;;;;;10.93;6.97;;;9.30;99.90;;;;;;6117219;23;20387;-87
2023/09/01 03:40:16;;;;;;;6.60;5.78;;;9.60;99.90;;;;;;6114951;23;20973;-86
2023/09/01 03:42:41;;;;;;;11.50;8.52;;;9.40;99.90;;;;;;6116639;23;20385;-87
2023/09/01 03:45:07;;;;;;;7.72;6.63;;;9.20;99.90;;;;;;6116008;23;20373;-86
2023/09/01 03:47:33;;;;;;;7.55;6.50;;;9.20;99.90;;;;;;6116052;23;20404;-86
2023/09/01 03:49:58;;;;;;;8.10;6.33;;;9.20;99.90;;;;;;6116739;23;21013;-86
2023/09/01 03:52:24;;;;;;;6.97;5.40;;;9.20;99.90;;;;;;6116437;23;20785;-86
2023/09/01 03:54:50;;;;;;;8.27;6.55;;;9.10;99.90;;;;;;6118977;23;20368;-87
2023/09/01 03:57:16;;;;;;;7.32;5.40;;;9.10;99.90;;;;;;6116697;23;20869;-86
2023/09/01 03:59:43;;;;;;;7.90;5.87;;;9.10;99.90;;;;;;6119031;23;20381;-86
2023/09/01 04:02:09;;;;;;;7.45;5.07;;;9.10;99.90;;;;;;6117264;23;20443;-86
2023/09/01 04:04:34;;;;;;;6.00;4.73;;;9.10;99.90;;;;;;6118681;23;20416;-87
2023/09/01 04:07:00;;;;;;;6.57;5.50;;;9.10;99.90;;;;;;6118345;23;20878;-87
2023/09/01 04:09:26;;;;;;;9.63;6.90;;;9.10;99.90;;;;;;6092896;23;20463;-86
2023/09/01 04:11:51;;;;;;;9.77;6.83;;;9.00;99.90;;;;;;6094254;23;20404;-86
2023/09/01 04:14:17;;;;;;;9.35;6.72;;;9.00;99.90;;;;;;6092320;23;20376;-86
2023/09/01 04:16:42;;;;;;;11.50;7.30;;;8.90;99.90;;;;;;6118868;23;20376;-87
2023/09/01 04:19:09;;;;;;;8.35;6.65;;;9.00;99.90;;;;;;6092474;23;20702;-86
2023/09/01 04:21:35;;;;;;;8.93;7.00;;;9.00;99.90;;;;;;6118694;23;20905;-87
2023/09/01 04:24:01;;;;;;;7.70;6.47;;;9.10;99.90;;;;;;6117932;23;20451;-87
2023/09/01 04:26:26;;;;;;;8.03;6.40;;;8.90;99.90;;;;;;6093667;23;20373;-87
2023/09/01 04:28:52;;;;;;;8.70;6.90;;;8.80;99.90;;;;;;6118264;23;20448;-87
2023/09/01 04:31:29;;;;;;;8.13;6.70;;;9.00;99.90;;;;;;6116889;23;20380;-86
2023/09/01 04:33:55;;;;;;;8.05;6.30;;;8.80;99.90;;;;;;6119083;23;20392;-87
2023/09/01 04:36:21;;;;;;;7.28;5.80;;;9.60;99.90;;;;;;6116643;23;20401;-86
2023/09/01 04:38:48;;;;;;;11.95;7.80;;;8.80;99.90;;;;;;6118657;23;20706;-87
2023/09/01 04:41:13;;;;;;;7.32;5.55;;;8.60;99.90;;;;;;6116713;23;20421;-85
2023/09/01 04:43:39;;;;;;;8.73;6.80;;;8.60;99.90;;;;;;6117671;23;20385;-86
2023/09/01 04:46:05;;;;;;;7.67;6.23;;;8.80;99.90;;;;;;6118663;23;20383;-86
2023/09/01 04:48:30;;;;;;;8.23;6.82;;;8.70;99.90;;;;;;6116447;23;20730;-87
2023/09/01 04:50:57;;;;;;;11.45;7.35;;;8.70;99.90;;;;;;6117108;23;20369;-87
2023/09/01 04:53:22;;;;;;;7.40;5.93;;;8.60;99.90;;;;;;6116231;23;20376;-87
2023/09/01 04:55:49;;;;;;;7.80;6.40;;;8.90;99.90;;;;;;6118065;23;20763;-87
2023/09/01 04:58:15;;;;;;;8.45;6.45;;;8.60;99.90;;;;;;6116455;23;20377;-86
2023/09/01 05:00:41;;;;;;;6.45;5.68;;;8.80;99.90;;;;;;6117547;23;20749;-88
2023/09/01 05:03:07;;;;;;;6.80;6.07;;;8.80;99.90;;;;;;6116970;23;20479;-87
2023/09/01 05:05:33;;;;;;;8.25;6.20;;;8.70;99.90;;;;;;6117313;23;20710;-86
2023/09/01 05:07:59;;;;;;;7.22;6.40;;;8.80;99.90;;;;;;6117857;23;20377;-87
2023/09/01 05:10:25;;;;;;;8.17;6.30;;;8.70;99.90;;;;;;6115478;23;20381;-88
2023/09/01 05:12:50;;;;;;;6.88;5.75;;;9.40;99.90;;;;;;6117805;23;20432;-88
2023/09/01 05:15:16;;;;;;;7.13;6.22;;;9.10;99.90;;;;;;6115752;23;20758;-87
2023/09/01 05:17:42;;;;;;;8.73;6.35;;;8.70;99.90;;;;;;6093863;23;20377;-88
2023/09/01 05:20:09;;;;;;;8.13;6.57;;;8.90;99.90;;;;;;6116479;23;20377;-87
2023/09/01 05:22:35;;;;;;;8.52;6.35;;;8.90;99.90;;;;;;6117822;23;20373;-87
2023/09/01 05:25:00;;;;;;;7.70;5.85;;;9.00;99.90;;;;;;6117711;23;20460;-87
2023/09/01 05:27:26;;;;;;;8.75;6.00;;;9.70;99.90;;;;;;6091994;23;21111;-88
2023/09/01 05:29:52;;;;;;;7.70;5.90;;;10.00;99.90;;;;;;6092347;23;20403;-88
2023/09/01 05:32:20;;;;;;;6.47;5.77;;;9.60;99.90;;;;;;6091036;23;20369;-88
2023/09/01 05:34:45;;;;;;;10.32;7.55;;;9.40;99.90;;;;;;6093098;23;20373;-87
2023/09/01 05:37:12;;;;;;;9.40;6.68;;;9.80;99.90;;;;;;6116051;23;20436;-87
2023/09/01 05:39:38;;;;;;;9.23;6.53;;;10.40;99.90;;;;;;6093017;23;20379;-88
2023/09/01 05:42:04;;;;;;;6.30;5.33;;;9.80;99.90;;;;;;6091874;23;20391;-89
2023/09/01 05:44:30;;;;;;;8.20;6.60;;;10.00;99.90;;;;;;6116720;23;20377;-88
2023/09/01 05:46:56;;;;;;;7.75;5.55;;;10.40;99.90;;;;;;6093370;23;20434;-88
2023/09/01 05:49:26;;;;;;;7.73;5.83;;;10.50;99.90;;;;;;6116014;23;20936;-88
2023/09/01 05:51:52;;;;;;;6.60;5.43;;;10.60;99.90;;;;;;6093494;23;20415;-88
2023/09/01 05:54:18;;;;;;;6.50;5.25;;;11.50;99.90;;;;;;6091665;23;20465;-88
2023/09/01 05:56:44;;;;;;;9.00;6.53;;;11.00;99.90;;;;;;6118029;23;20698;-88
2023/09/01 05:59:10;;;;;;;8.80;6.60;;;11.00;99.90;;;;;;6090626;23;20376;-88
2023/09/01 06:01:36;;;;;;;8.03;6.93;;;11.00;99.90;;;;;;6092660;23;20431;-89
2023/09/01 06:04:05;;;;;;;8.98;7.22;;;11.10;99.90;;;;;;6116917;23;20459;-88
2023/09/01 06:06:35;;;;;;;8.90;6.90;;;11.10;99.90;;;;;;6091477;23;20712;-88
2023/09/01 06:09:04;;;;;;;8.68;7.32;;;11.20;99.90;;;;;;6092728;23;20476;-88
2023/09/01 06:11:30;;;;;;;9.07;7.40;;;11.40;99.90;;;;;;6091282;23;20702;-89
2023/09/01 06:13:56;;;;;;;10.70;8.20;;;11.50;99.90;;;;;;6116740;23;20432;-88
2023/09/01 06:16:22;;;;;;;10.27;8.38;;;11.50;99.90;;;;;;6115540;23;20738;-88
2023/09/01 06:18:48;;;;;;;9.10;7.50;;;11.60;99.90;;;;;;6117384;23;20464;-90
2023/09/01 06:21:15;;;;;;;13.95;9.25;;;12.20;99.90;;;;;;6093754;23;20385;-89
2023/09/01 06:23:44;;;;;;;13.38;9.25;;;12.30;99.90;;;;;;6092085;23;20408;-88
2023/09/01 06:26:19;;;;;;;12.80;9.10;;;12.20;99.90;;;;;;6117800;23;20743;-88
2023/09/01 06:28:46;;;;;;;9.43;7.30;;;12.40;99.90;;;;;;6090843;23;20399;-89
2023/09/01 06:31:13;;;;;;;10.43;6.93;;;13.00;99.90;;;;;;6093318;23;20885;-90
2023/09/01 06:33:48;;;;;;;8.38;6.97;;;13.40;99.90;;;;;;6091946;23;20368;-88
2023/09/01 06:36:14;;;;;;;9.32;7.95;;;12.90;99.90;;;;;;6117301;23;20850;-89
2023/09/01 06:38:41;;;;;;;9.85;8.50;;;13.40;99.90;;;;;;6093053;23;20387;-88
2023/09/01 06:41:06;;;;;;;11.45;9.50;;;13.20;99.90;;;;;;6115375;23;20480;-88
2023/09/01 06:43:32;;;;;;;8.48;7.28;;;13.70;99.90;;;;;;6093066;23;20744;-89
2023/09/01 06:45:58;;;;;;;9.53;5.90;;;14.20;99.90;;;;;;6091094;23;20400;-88
2023/09/01 06:48:24;;;;;;;8.10;5.30;;;13.70;99.90;;;;;;6117513;23;20411;-87
2023/09/01 06:50:50;;;;;;;6.07;4.30;;;13.90;99.90;;;;;;6091315;23;20376;-89
2023/09/01 06:53:16;;;;;;;7.03;4.30;;;14.10;99.90;;;;;;6117058;23;20372;-89
2023/09/01 06:55:43;;;;;;;5.07;4.10;;;14.00;99.90;;;;;;6092829;23;20825;-88
2023/09/01 06:58:09;;;;;;;6.68;4.55;;;14.30;99.90;;;;;;6091697;23;20377;-89
2023/09/01 07:00:34;;;;;;;6.73;4.87;;;14.00;99.90;;;;;;6093227;23;20852;-89
2023/09/01 07:03:00;;;;;;;6.80;4.77;;;14.20;99.90;;;;;;6115786;23;20412;-89
2023/09/01 07:05:25;;;;;;;5.18;3.53;;;14.40;99.90;;;;;;6093012;23;20408;-88
2023/09/01 07:07:52;;;;;;;7.03;3.97;;;14.40;99.90;;;;;;6091242;23;20416;-89
2023/09/01 07:10:18;;;;;;;6.40;3.80;;;14.50;99.90;;;;;;6117731;23;20427;-88
2023/09/01 07:12:44;;;;;;;5.67;3.70;;;14.50;99.90;;;;;;6091530;23;20703;-88
2023/09/01 07:15:10;;;;;;;5.78;3.00;;;14.60;99.90;;;;;;6092552;23;20480;-90
2023/09/01 07:17:36;;;;;;;5.80;2.73;;;14.70;99.90;;;;;;6117616;23;20372;-89
2023/09/01 07:20:03;;;;;;;6.00;3.57;;;15.00;99.90;;;;;;6091432;23;20946;-89
2023/09/01 07:22:28;;;;;;;4.75;2.53;;;15.00;99.90;;;;;;6093581;23;20392;-90
2023/09/01 07:24:54;;;;;;;6.65;4.40;;;15.60;99.90;;;;;;6091103;23;20771;-90
2023/09/01 07:27:20;;;;;;;3.90;2.20;;;15.40;99.90;;;;;;6092848;23;20411;-89
2023/09/01 07:29:48;;;;;;;5.03;2.92;;;15.60;99.90;;;;;;6090986;23;20408;-90
2023/09/01 07:32:15;;;;;;;4.03;2.00;;;15.90;99.90;;;;;;6117796;23;20862;-89
2023/09/01 07:34:40;;;;;;;4.03;2.25;;;16.00;99.90;;;;;;6116796;23;20507;-89
2023/09/01 07:37:07;;;;;;;4.50;1.95;;;16.10;99.90;;;;;;6116270;23;20377;-91
2023/09/01 07:39:32;;;;;;;4.68;2.33;;;16.20;99.90;;;;;;6093263;23;20395;-89
2023/09/01 07:41:58;;;;;;;4.82;1.92;;;16.40;99.90;;;;;;6090978;23;20452;-89
2023/09/01 07:44:24;;;;;;;3.67;1.73;;;16.30;99.90;;;;;;6093782;23;20380;-90
2023/09/01 07:46:50;;;;;;;3.60;1.70;;;16.60;99.90;;;;;;6115584;23;20379;-90
2023/09/01 07:49:15;;;;;;;4.43;1.60;;;16.60;99.90;;;;;;6093107;23;20487;-89
2023/09/01 07:51:42;;;;;;;5.50;1.80;;;16.50;99.90;;;;;;6091876;23;20413;-90
2023/09/01 07:54:08;;;;;;;3.60;1.20;;;16.50;99.90;;;;;;6092746;23;20372;-90
2023/09/01 07:56:34;;;;;;;3.83;1.08;;;16.70;99.90;;;;;;6093051;23;20375;-89
2023/09/01 07:59:00;;;;;;;5.28;1.60;;;16.50;99.90;;;;;;6116107;23;20368;-90
2023/09/01 08:01:26;;;;;;;3.33;1.60;;;16.70;99.90;;;;;;6118010;23;20372;-91
2023/09/01 08:03:51;;;;;;;4.57;1.75;;;16.60;99.90;;;;;;6091104;23;20498;-91
2023/09/01 08:06:17;;;;;;;4.67;1.80;;;16.90;99.90;;;;;;6117773;23;20412;-89
2023/09/01 08:08:43;;;;;;;4.95;2.20;;;16.90;99.90;;;;;;6091432;23;20574;-90
2023/09/01 08:11:08;;;;;;;5.70;2.27;;;16.60;99.90;;;;;;6093024;23;20841;-90
2023/09/01 08:13:34;;;;;;;4.25;2.08;;;17.20;99.90;;;;;;6092735;23;20380;-90
2023/09/01 08:16:00;;;;;;;5.65;2.10;;;16.90;99.90;;;;;;6092280;23;20372;-90
2023/09/01 08:18:25;;;;;;;6.13;2.00;;;17.10;99.90;;;;;;6092987;23;20381;-90
2023/09/01 08:20:51;;;;;;;4.27;1.83;;;16.90;99.90;;;;;;6115905;23;20423;-90
2023/09/01 08:23:21;;;;;;;4.78;1.83;;;16.90;99.90;;;;;;6092962;23;20473;-91
2023/09/01 08:25:48;;;;;;;4.63;1.85;;;17.30;99.90;;;;;;6116033;23;20384;-90
2023/09/01 08:28:13;;;;;;;5.70;1.52;;;17.10;99.90;;;;;;6117368;23;20411;-89
2023/09/01 08:30:39;;;;;;;4.47;1.50;;;17.20;99.90;;;;;;6116289;23;20703;-90
2023/09/01 08:33:05;;;;;;;4.10;1.77;;;17.50;99.90;;;;;;6117237;23;20377;-91
2023/09/01 08:35:30;;;;;;;4.07;1.40;;;17.40;99.90;;;;;;6117522;23;20381;-90
2023/09/01 08:37:56;;;;;;;5.38;1.70;;;17.60;99.90;;;;;;6091280;23;20416;-90
2023/09/01 08:40:22;;;;;;;3.97;1.60;;;17.80;99.90;;;;;;6095056;23;20376;-92
2023/09/01 08:42:49;;;;;;;2.95;1.30;;;17.70;99.90;;;;;;6092725;23;20376;-90
2023/09/01 08:45:17;;;;;;;4.88;1.30;;;17.80;99.90;;;;;;6094793;23;20369;-90
2023/09/01 08:47:45;;;;;;;4.20;1.50;;;18.00;99.90;;;;;;6093338;23;20856;-91
2023/09/01 08:50:12;;;;;;;4.45;1.40;;;18.20;99.90;;;;;;6094987;23;20404;-90
2023/09/01 08:52:40;;;;;;;5.50;1.30;;;18.10;99.90;;;;;;6118929;23;20380;-92
2023/09/01 08:55:06;;;;;;;4.10;1.30;;;18.40;99.90;;;;;;6093850;23;20387;-89
2023/09/01 08:57:32;;;;;;;4.97;1.30;;;18.30;99.90;;;;;;6094157;23;20376;-90
2023/09/01 08:59:57;;;;;;;4.25;1.30;;;18.30;99.90;;;;;;6093319;23;20368;-92
2023/09/01 09:02:23;;;;;;;3.40;1.00;;;18.60;99.90;;;;;;6119008;23;20385;-90
2023/09/01 09:04:49;;;;;;;4.65;1.45;;;18.40;99.90;;;;;;6093050;23;21258;-91
2023/09/01 09:07:18;;;;;;;4.78;1.40;;;18.40;99.90;;;;;;6095039;23;20393;-92
2023/09/01 09:09:54;;;;;;;3.38;1.77;;;18.50;99.90;;;;;;6093802;23;20440;-91
2023/09/01 09:12:33;;;;;;;4.03;1.80;;;18.60;99.90;;;;;;6094064;23;20428;-92
2023/09/01 09:14:58;;;;;;;5.00;1.00;;;18.90;99.90;;;;;;6096045;23;20380;-91
2023/09/01 09:17:44;;;;;;;4.20;0.90;;;18.70;99.90;;;;;;6093548;23;20364;-91
2023/09/01 09:20:18;;;;;;;5.00;1.30;;;18.80;99.90;;;;;;6120050;23;20369;-90
2023/09/01 09:22:50;;;;;;;4.80;1.20;;;18.80;99.90;;;;;;6094627;23;20412;-92
2023/09/01 09:25:26;;;;;;;4.07;1.10;;;18.80;99.90;;;;;;6094456;23;20776;-91
2023/09/01 09:27:52;;;;;;;4.03;1.23;;;18.80;99.90;;;;;;6095311;23;20377;-90
2023/09/01 09:30:18;;;;;;;3.70;1.00;;;18.80;99.90;;;;;;6093590;23;20373;-91
2023/09/01 09:32:44;;;;;;;5.47;0.80;;;18.90;99.90;;;;;;6095515;23;21230;-92
2023/09/01 09:35:11;;;;;;;2.13;0.50;;;19.10;99.90;;;;;;6093714;23;20375;-92
2023/09/01 09:37:39;;;;;;;3.78;0.68;;;19.10;99.90;;;;;;6095393;23;20368;-92
2023/09/01 09:40:11;;;;;;;3.90;0.60;;;19.30;99.90;;;;;;6093752;23;20373;-91
2023/09/01 09:42:41;;;;;;;2.85;0.70;;;19.00;99.90;;;;;;6094232;23;20683;-93
2023/09/01 09:45:32;;;;;;;2.60;0.60;;;19.10;99.90;;;;;;6094567;23;21905;-90
2023/09/01 09:48:01;;;;;;;3.07;0.90;;;19.10;99.90;;;;;;6093260;23;20383;-90
2023/09/01 09:50:29;;;;;;;2.28;0.80;;;19.40;99.90;;;;;;6119169;23;20506;-92
2023/09/01 09:53:00;;;;;;;3.35;0.80;;;19.10;99.90;;;;;;6092724;23;20373;-92
2023/09/01 09:55:28;;;;;;;4.78;0.80;;;19.00;99.90;;;;;;6094789;23;20848;-92
2023/09/01 09:58:02;;;;;;;3.67;0.73;;;19.20;99.90;;;;;;6095405;23;20385;-92
2023/09/01 10:00:30;;;;;;;2.20;0.70;;;19.00;99.90;;;;;;6093649;23;20400;-92
2023/09/01 10:03:00;;;;;;;4.45;0.50;;;19.40;99.90;;;;;;6095630;23;20428;-92
2023/09/01 10:05:32;;;;;;;3.28;0.60;;;19.30;99.90;;;;;;6091680;23;20369;-93
2023/09/01 10:08:00;;;;;;;2.92;0.50;;;19.50;99.90;;;;;;6094633;23;20850;-92
2023/09/01 10:10:26;;;;;;;2.88;0.80;;;19.30;99.90;;;;;;6093043;23;20376;-90
2023/09/01 10:12:52;;;;;;;2.28;0.50;;;19.70;99.90;;;;;;6094398;23;20770;-91
2023/09/01 10:15:20;;;;;;;3.17;0.57;;;19.70;99.90;;;;;;6118598;23;20372;-94
2023/09/01 10:17:48;;;;;;;3.80;0.70;;;19.80;99.90;;;;;;6092507;23;20999;-91
2023/09/01 10:20:13;;;;;;;2.90;0.70;;;19.80;99.90;;;;;;6093779;23;20385;-91
2023/09/01 10:22:39;;;;;;;3.73;0.60;;;19.90;99.90;;;;;;6092812;23;20369;-90
2023/09/01 10:25:09;;;;;;;2.58;0.60;;;20.20;99.90;;;;;;6094420;23;20871;-92
2023/09/01 10:27:34;;;;;;;3.00;0.70;;;20.00;99.90;;;;;;6092751;23;20373;-91
2023/09/01 10:30:00;;;;;;;2.15;0.50;;;20.10;96.60;;;;;;6094521;23;20771;-91
2023/09/01 10:32:31;;;;;;;3.50;0.45;;;20.00;96.00;;;;;;6094190;23;20404;-90
2023/09/01 10:34:57;;;;;;;2.78;0.50;;;20.50;97.10;;;;;;6093153;23;20431;-92
2023/09/01 10:37:27;;;;;;;2.73;0.40;;;20.50;99.40;;;;;;6095042;23;20714;-92
2023/09/01 10:39:54;;;;;;;2.92;0.70;;;20.90;98.80;;;;;;6095259;23;20435;-92
2023/09/01 10:42:39;;;;;;;3.40;0.50;;;21.60;99.60;;;;;;6099460;23;20371;-93
2023/09/01 10:45:07;;;;;;;2.10;0.32;;;21.80;87.10;;;;;;6098105;23;20440;-91
2023/09/01 10:47:34;;;;;;;2.15;0.30;;;21.90;84.80;;;;;;6099190;23;20901;-92
2023/09/01 10:50:03;;;;;;;2.07;0.50;;;22.30;91.10;;;;;;6099378;23;20406;-92
2023/09/01 10:52:31;;;;;;;3.47;0.60;;;22.60;83.90;;;;;;6097347;23;20418;-91
2023/09/01 10:55:00;;;;;;;2.40;0.50;;;23.00;76.20;;;;;;6099834;23;20749;-92
2023/09/01 10:57:52;;;;;;;2.63;0.40;;;23.00;70.60;;;;;;6096797;23;20375;-93
2023/09/01 11:00:29;;;;;;;2.65;0.30;;;22.60;71.50;;;;;;6117059;23;20441;-92
2023/09/01 11:03:30;;;;;;;2.03;0.30;;;22.60;65.40;;;;;;6099038;23;20379;-91
2023/09/01 11:05:58;;;;;;;2.53;0.50;;;22.50;66.90;;;;;;6097317;23;20848;-93
2023/09/01 11:08:25;;;;;;;2.47;0.43;;;22.50;70.70;;;;;;6099795;23;20554;-93
2023/09/01 11:11:00;;;;;;;2.15;0.30;;;22.80;67.80;;;;;;6097133;23;20379;-93
2023/09/01 11:13:26;;;;;;;1.92;0.40;;;22.90;69.50;;;;;;6099410;23;20379;-90
2023/09/01 11:15:52;;;;;;;3.45;0.43;;;23.70;66.50;;;;;;6099409;23;20377;-93
2023/09/01 11:18:24;;;;;;;2.03;0.40;;;24.10;68.70;;;;;;6098024;23;20402;-91
2023/09/01 11:20:55;;;;;;;2.15;0.40;;;24.90;65.90;;;;;;6124587;23;20407;-91
2023/09/01 11:23:25;;;;;;;2.85;0.45;;;25.30;59.40;;;;;;6096993;23;20696;-93
2023/09/01 11:25:57;;;;;;;2.42;0.50;;;25.80;54.00;;;;;;6099878;23;20375;-92
2023/09/01 11:28:27;;;;;;;3.33;0.50;;;26.30;53.30;;;;;;6097198;23;20430;-91
2023/09/01 11:30:57;;;;;;;2.42;0.65;;;26.60;50.30;;;;;;6099304;23;20860;-94
2023/09/01 11:33:24;;;;;;;3.05;0.50;;;26.50;49.60;;;;;;6099104;23;20402;-94
2023/09/01 11:36:03;;;;;;;2.60;0.60;;;26.30;52.20;;;;;;6097847;23;20409;-91
2023/09/01 11:38:29;;;;;;;2.17;0.52;;;26.30;54.40;;;;;;6098969;23;20704;-94
2023/09/01 11:40:55;;;;;;;2.77;0.50;;;26.30;54.30;;;;;;6097295;23;20451;-91
2023/09/01 11:43:21;;;;;;;1.77;0.50;;;26.20;50.00;;;;;;6123607;23;20414;-94
2023/09/01 11:45:50;;;;;;;2.67;0.60;;;26.00;51.50;;;;;;6097868;23;20375;-89
2023/09/01 11:48:30;;;;;;;3.70;0.40;;;26.10;55.30;;;;;;6099669;23;20407;-91
2023/09/01 11:50:58;;;;;;;2.92;0.65;;;25.70;52.70;;;;;;6099060;23;20379;-92
2023/09/01 11:53:32;;;;;;;2.78;0.50;;;25.50;52.90;;;;;;6096902;23;20371;-91
2023/09/01 11:55:59;;;;;;;2.30;0.80;;;25.50;54.00;;;;;;6123274;23;20379;-93
2023/09/01 11:58:33;;;;;;;3.05;0.70;;;25.40;54.60;;;;;;6097758;23;20386;-92
2023/09/01 12:01:12;;;;;;;3.88;0.50;;;25.20;53.20;;;;;;6099530;23;20382;-94
2023/09/01 12:03:38;;;;;;;2.85;0.50;;;25.00;57.30;;;;;;6123117;23;20379;-92
2023/09/01 12:06:22;;;;;;;4.00;0.80;;;25.00;58.30;;;;;;6122344;23;20698;-93
2023/09/01 12:08:49;;;;;;;3.75;0.70;;;25.10;57.20;;;;;;6099431;23;20422;-91
2023/09/01 12:11:16;;;;;;;3.85;1.00;;;25.60;60.50;;;;;;6121342;23;20378;-91
2023/09/01 12:13:45;;;;;;;5.38;1.00;;;26.10;57.00;;;;;;6100111;23;20362;-94
2023/09/01 12:16:21;;;;;;;1.88;0.63;;;26.50;53.80;;;;;;6099591;23;20837;-95
2023/09/01 12:18:47;;;;;;;3.40;0.63;;;26.90;51.20;;;;;;6100555;23;20379;-93
2023/09/01 12:21:13;;;;;;;3.87;0.90;;;27.10;52.00;;;;;;6101314;23;20411;-93
2023/09/01 12:23:44;;;;;;;4.07;0.90;;;27.20;51.50;;;;;;6123343;23;20367;-92
2023/09/01 12:26:11;;;;;;;4.05;0.70;;;27.30;49.00;;;;;;6125512;23;20385;-94
2023/09/01 12:28:38;;;;;;;2.40;0.70;;;27.50;48.60;;;;;;6098613;23;20422;-92
2023/09/01 12:31:09;;;;;;;3.78;0.90;;;27.60;46.80;;;;;;6101418;23;20379;-95
2023/09/01 12:33:36;;;;;;;2.53;0.60;;;27.50;48.00;;;;;;6099492;23;20501;-94
2023/09/01 12:36:04;;;;;;;3.63;0.70;;;27.50;50.90;;;;;;6125132;23;20816;-95
2023/09/01 12:38:30;;;;;;;3.22;0.77;;;27.20;48.50;;;;;;6101340;23;20406;-94
2023/09/01 12:40:56;;;;;;;3.33;0.60;;;27.70;47.20;;;;;;6099098;23;20387;-94
2023/09/01 12:43:22;;;;;;;3.92;0.63;;;28.00;53.20;;;;;;6101769;23;20874;-91
2023/09/01 12:45:48;;;;;;;3.40;0.80;;;28.30;47.10;;;;;;6098673;23;20371;-93
2023/09/01 12:48:16;;;;;;;3.50;0.90;;;28.50;49.60;;;;;;6101628;23;20367;-93
2023/09/01 12:50:47;;;;;;;4.28;0.85;;;28.70;47.00;;;;;;6099325;23;20391;-95